Anna Noli — IZEL — position and weather

sailwx.info

Track history (hours):
 
Tides and Currents Weather Stations Pressure Air Temp Water Temp Dewpoint Dewpoint Depression Visibility Wind Speed Wind Dir Waves Ship Positions

Anna Noli

Last reported at 2015-May-26 09:19 UTC. Time now 2015-May-26 09:44 UTC.
Position N 44°19' E 008°30'.

Length 32 m.

Type: Tug. MMSI: 247046500.

Date/timePositionNaut miles runAvg speedWind from/ knotsBaromVisibWave heightAir tempDewpointWater temp
2015-May-26 09:19N 44°19' E 008°30'2 1.2
2015-May-26 07:33N 44°17' E 008°28'1 0.4
2015-May-26 06:13N 44°17' E 008°28'1 1.2
2015-May-26 05:33N 44°16' E 008°28'2 2.0
2015-May-26 04:30N 44°18' E 008°29'1 0.0
2015-May-24 19:18N 44°18' E 008°29'0 0.0
2015-May-24 17:30N 44°18' E 008°29'0 0.0
2015-May-24 16:30N 44°18' E 008°29'0 0.0
2015-May-24 15:33N 44°18' E 008°29'0 0.0
2015-May-24 14:24N 44°18' E 008°29'0 0.0
2015-May-24 08:13N 44°19' E 008°29'1 0.7
2015-May-24 07:12N 44°19' E 008°30'1 0.0
2015-May-22 16:18N 44°19' E 008°29'2 1.5
2015-May-22 15:10N 44°17' E 008°28'2 0.9
2015-May-22 13:23N 44°16' E 008°27'3 2.5
2015-May-22 12:18N 44°18' E 008°30'1 0.1
2015-May-22 05:05N 44°19' E 008°29'1 1.3
2015-May-22 04:30N 44°19' E 008°30'0 0.0
2015-May-21 15:33N 44°19' E 008°30'1 0.1
2015-May-21 08:09N 44°19' E 008°29'3 5.4
2015-May-21 07:33N 44°16' E 008°27'4 3.3
2015-May-21 06:19N 44°19' E 008°31'0 0.3
2015-May-21 04:32N 44°19' E 008°31'1 0.2
2015-May-20 23:19N 44°19' E 008°29'1 1.2
2015-May-20 22:30N 44°19' E 008°31'1 0.3
2015-May-20 19:24N 44°19' E 008°29'0 0.0
2015-May-19 13:11N 44°19' E 008°29'3 4.7
2015-May-19 12:29N 44°16' E 008°27'3 0.3
2015-May-19 01:16N 44°18' E 008°29'0 0.0
2015-May-18 23:30N 44°18' E 008°29'0 0.0
2015-May-18 22:33N 44°18' E 008°29'0 0.0
2015-May-18 21:33N 44°18' E 008°29'0 0.0
2015-May-18 18:29N 44°18' E 008°29'0 0.0
2015-May-18 16:32N 44°18' E 008°29'0 0.0
2015-May-18 15:30N 44°18' E 008°29'0 0.0
2015-May-18 14:28N 44°18' E 008°29'0 0.0
2015-May-18 13:11N 44°18' E 008°29'0 0.0
2015-May-18 11:22N 44°18' E 008°29'0 0.0
2015-May-17 09:27N 44°19' E 008°29'0 0.0
2015-May-17 01:12N 44°18' E 008°29'  
Track history (hours):
 
Tides and Currents Weather Stations Pressure Air Temp Water Temp Dewpoint Dewpoint Depression Visibility Wind Speed Wind Dir Waves Ship Positions

Anna Noli

Last reported at 2015-May-26 09:19 UTC. Time now 2015-May-26 09:44 UTC.
Position N 44°19' E 008°30'.

Length 32 m.

Type: Tug. MMSI: 247046500.

Date/timePositionNaut miles runAvg speedWind from/ knotsBaromVisibWave heightAir tempDewpointWater temp
2015-May-26 09:19N 44°19' E 008°30'2 1.2
2015-May-26 07:33N 44°17' E 008°28'1 0.4
2015-May-26 06:13N 44°17' E 008°28'1 1.2
2015-May-26 05:33N 44°16' E 008°28'2 2.0
2015-May-26 04:30N 44°18' E 008°29'1 0.0
2015-May-24 19:18N 44°18' E 008°29'0 0.0
2015-May-24 17:30N 44°18' E 008°29'0 0.0
2015-May-24 16:30N 44°18' E 008°29'0 0.0
2015-May-24 15:33N 44°18' E 008°29'0 0.0
2015-May-24 14:24N 44°18' E 008°29'0 0.0
2015-May-24 08:13N 44°19' E 008°29'1 0.7
2015-May-24 07:12N 44°19' E 008°30'1 0.0
2015-May-22 16:18N 44°19' E 008°29'2 1.5
2015-May-22 15:10N 44°17' E 008°28'2 0.9
2015-May-22 13:23N 44°16' E 008°27'3 2.5
2015-May-22 12:18N 44°18' E 008°30'1 0.1
2015-May-22 05:05N 44°19' E 008°29'1 1.3
2015-May-22 04:30N 44°19' E 008°30'0 0.0
2015-May-21 15:33N 44°19' E 008°30'1 0.1
2015-May-21 08:09N 44°19' E 008°29'3 5.4
2015-May-21 07:33N 44°16' E 008°27'4 3.3
2015-May-21 06:19N 44°19' E 008°31'0 0.3
2015-May-21 04:32N 44°19' E 008°31'1 0.2
2015-May-20 23:19N 44°19' E 008°29'1 1.2
2015-May-20 22:30N 44°19' E 008°31'1 0.3
2015-May-20 19:24N 44°19' E 008°29'0 0.0
2015-May-19 13:11N 44°19' E 008°29'3 4.7
2015-May-19 12:29N 44°16' E 008°27'3 0.3
2015-May-19 01:16N 44°18' E 008°29'0 0.0
2015-May-18 23:30N 44°18' E 008°29'0 0.0
2015-May-18 22:33N 44°18' E 008°29'0 0.0
2015-May-18 21:33N 44°18' E 008°29'0 0.0
2015-May-18 18:29N 44°18' E 008°29'0 0.0
2015-May-18 16:32N 44°18' E 008°29'0 0.0
2015-May-18 15:30N 44°18' E 008°29'0 0.0
2015-May-18 14:28N 44°18' E 008°29'0 0.0
2015-May-18 13:11N 44°18' E 008°29'0 0.0
2015-May-18 11:22N 44°18' E 008°29'0 0.0
2015-May-17 09:27N 44°19' E 008°29'0 0.0
2015-May-17 01:12N 44°18' E 008°29'  

Dump ship's entire track history